Time;durP1;ratioP1;P1;durP2;ratioP2;P2;SDS_P1;SDS_P2;PMS_P1;PMS_P2;Temp;Humidity;BMP_temperature;BMP_pressure;BME280_temperature;BME280_humidity;BME280_pressure;Samples;Min_cycle;Max_cycle;Signal;HPM_P1;HPM_P2
2022/01/20 00:00:02;;;;;;;13.23;7.60;;;6.70;99.90;;;;;;5093196;28;20232;-73
2022/01/20 00:02:31;;;;;;;11.27;7.80;;;6.60;1.00;;;;;;5092816;28;20216;-72
2022/01/20 00:05:10;;;;;;;10.90;8.30;;;6.50;1.00;;;;;;5093179;28;20205;-73
2022/01/20 00:07:49;;;;;;;12.13;7.97;;;6.50;1.00;;;;;;5092730;28;20665;-73
2022/01/20 00:26:53;;;;;;;11.27;9.20;;;6.40;1.00;;;;;;5092442;28;20210;-78
2022/01/20 00:29:26;;;;;;;11.20;8.33;;;6.40;1.00;;;;;;5092862;28;20235;-77
2022/01/20 00:32:07;;;;;;;12.47;9.43;;;6.40;1.00;;;;;;5092784;28;20202;-77
2022/01/20 00:37:27;;;;;;;14.70;8.83;;;6.40;1.00;;;;;;5076427;28;20209;-75
2022/01/20 00:39:56;;;;;;;12.77;9.30;;;6.40;1.00;;;;;;5092427;28;20302;-76
2022/01/20 00:42:23;;;;;;;14.70;10.17;;;6.40;1.00;;;;;;5091618;28;20213;-75
2022/01/20 00:44:51;;;;;;;13.30;9.00;;;6.30;1.00;;;;;;5092859;28;20201;-76
2022/01/20 00:47:19;;;;;;;14.27;11.03;;;6.40;1.00;;;;;;5092735;28;20202;-75
2022/01/20 00:49:47;;;;;;;11.03;8.00;;;6.30;1.00;;;;;;5091809;28;20261;-76
2022/01/20 00:52:14;;;;;;;14.67;9.40;;;6.30;1.00;;;;;;5092204;28;20610;-77
2022/01/20 00:54:41;;;;;;;12.33;10.30;;;6.30;1.00;;;;;;5091558;28;20793;-77
2022/01/20 00:57:10;;;;;;;13.60;9.50;;;6.30;1.00;;;;;;5092537;28;20270;-79
2022/01/20 00:59:37;;;;;;;11.77;8.60;;;6.30;1.00;;;;;;5092016;28;20202;-78
2022/01/20 01:02:07;;;;;;;14.07;9.57;;;6.30;1.00;;;;;;5092332;28;20201;-80
2022/01/20 01:04:34;;;;;;;13.67;9.77;;;6.40;1.00;;;;;;5091399;28;20259;-78
2022/01/20 01:07:22;;;;;;;13.77;9.20;;;6.30;1.00;;;;;;5091885;28;20198;-76
2022/01/20 01:09:49;;;;;;;10.97;9.27;;;6.30;1.00;;;;;;5092249;28;20293;-78
2022/01/20 01:12:28;;;;;;;13.47;9.30;;;6.40;1.00;;;;;;5091811;28;20661;-76
2022/01/20 01:14:55;;;;;;;13.23;9.40;;;6.30;1.00;;;;;;5091880;28;20636;-76
2022/01/20 01:20:19;;;;;;;12.07;9.13;;;6.30;1.00;;;;;;5091575;28;20232;-76
2022/01/20 01:22:46;;;;;;;14.17;9.77;;;6.30;1.00;;;;;;5091261;28;20227;-76
2022/01/20 01:25:14;;;;;;;11.47;8.83;;;6.20;1.00;;;;;;5091704;28;20197;-75
2022/01/20 01:27:45;;;;;;;15.53;10.30;;;6.30;1.00;;;;;;5091142;28;20745;-76
2022/01/20 01:30:42;;;;;;;13.33;9.97;;;6.20;1.00;;;;;;5091736;28;20213;-76
2022/01/20 01:33:09;;;;;;;19.23;10.40;;;6.20;1.00;;;;;;5091168;28;20729;-75
2022/01/20 01:35:39;;;;;;;14.83;11.00;;;6.30;1.00;;;;;;5091001;28;20215;-76
2022/01/20 01:38:35;;;;;;;14.37;10.73;;;6.30;1.00;;;;;;5091425;28;20217;-76
2022/01/20 01:41:04;;;;;;;15.93;10.53;;;6.30;1.00;;;;;;5091048;28;20233;-76
2022/01/20 01:43:33;;;;;;;15.57;11.57;;;6.20;1.00;;;;;;5091079;28;20274;-75
2022/01/20 01:46:01;;;;;;;14.90;11.10;;;6.30;25.40;;;;;;5091227;28;20206;-75
2022/01/20 01:48:28;;;;;;;15.43;10.27;;;6.30;9.20;;;;;;5090876;28;20202;-75
2022/01/20 01:50:55;;;;;;;16.60;11.13;;;6.30;49.40;;;;;;5091468;28;20212;-75
2022/01/20 01:53:23;;;;;;;23.60;12.60;;;6.30;38.40;;;;;;5090983;28;20684;-75
2022/01/20 01:55:50;;;;;;;16.07;10.47;;;6.30;4.20;;;;;;5091651;28;20333;-77
2022/01/20 01:58:17;;;;;;;15.33;10.07;;;6.30;1.00;;;;;;5091428;28;20296;-77
2022/01/20 02:00:46;;;;;;;14.10;10.30;;;6.30;17.50;;;;;;5090592;28;20233;-78
2022/01/20 02:03:14;;;;;;;13.73;9.83;;;6.30;7.80;;;;;;5091099;28;20669;-77
2022/01/20 02:05:56;;;;;;;16.13;10.40;;;6.30;1.00;;;;;;5090867;28;20209;-77
2022/01/20 02:08:38;;;;;;;18.83;10.20;;;6.30;1.00;;;;;;5091055;28;20632;-77
2022/01/20 02:19:23;;;;;;;14.40;9.63;;;6.10;1.00;;;;;;5091264;28;20205;-76
2022/01/20 02:21:53;;;;;;;12.40;9.53;;;6.10;1.00;;;;;;5091061;28;20225;-77
2022/01/20 02:24:20;;;;;;;11.33;8.90;;;6.10;1.00;;;;;;5090969;28;20209;-76
2022/01/20 02:26:48;;;;;;;15.13;10.63;;;6.10;1.00;;;;;;5090789;28;20201;-76
2022/01/20 02:29:15;;;;;;;13.20;8.97;;;6.10;1.00;;;;;;5090942;28;20201;-76
2022/01/20 02:31:43;;;;;;;12.63;9.13;;;6.10;1.00;;;;;;5090385;28;20218;-75
2022/01/20 02:34:11;;;;;;;14.50;9.40;;;6.00;1.00;;;;;;5090818;28;20206;-76
2022/01/20 02:36:40;;;;;;;13.77;8.70;;;6.00;1.00;;;;;;5090363;28;20248;-76
2022/01/20 02:39:22;;;;;;;12.43;8.17;;;5.90;1.00;;;;;;5090963;28;20197;-77
2022/01/20 02:44:51;;;;;;;10.67;8.20;;;5.90;1.00;;;;;;5090132;28;20204;-76
2022/01/20 02:47:18;;;;;;;12.80;8.93;;;5.80;1.00;;;;;;5090955;28;20201;-76
2022/01/20 02:49:46;;;;;;;9.57;8.00;;;5.80;1.00;;;;;;5090449;28;20620;-75
2022/01/20 02:52:13;;;;;;;12.80;9.43;;;5.80;1.00;;;;;;5090693;28;20212;-76
2022/01/20 02:54:42;;;;;;;12.57;8.47;;;5.80;1.00;;;;;;5090314;28;20201;-75
2022/01/20 02:57:09;;;;;;;11.13;9.80;;;5.80;1.00;;;;;;5090624;28;20326;-75
2022/01/20 02:59:36;;;;;;;13.60;8.00;;;5.70;1.00;;;;;;5090285;28;20201;-76
2022/01/20 03:02:04;;;;;;;12.17;8.50;;;5.70;1.00;;;;;;5090745;28;20237;-74
2022/01/20 03:04:31;;;;;;;10.73;8.03;;;5.70;1.00;;;;;;5090319;28;20247;-76
2022/01/20 03:06:59;;;;;;;14.53;8.43;;;5.70;1.00;;;;;;5094314;28;20669;-75
2022/01/20 03:09:26;;;;;;;14.00;8.83;;;5.70;1.00;;;;;;5093931;28;20201;-74
2022/01/20 03:11:55;;;;;;;11.27;8.87;;;5.70;1.00;;;;;;5094257;28;20205;-75
2022/01/20 03:14:22;;;;;;;10.63;6.97;;;5.60;1.00;;;;;;5094321;28;20202;-75
2022/01/20 03:16:50;;;;;;;12.10;8.33;;;5.60;1.00;;;;;;5094459;28;20205;-75
2022/01/20 03:19:17;;;;;;;10.67;8.10;;;5.60;1.00;;;;;;5094130;28;20255;-75
2022/01/20 03:21:45;;;;;;;9.57;7.43;;;5.60;1.00;;;;;;5093533;28;20716;-75
2022/01/20 03:24:13;;;;;;;11.93;7.77;;;5.60;1.00;;;;;;5093934;28;20217;-75
2022/01/20 03:26:40;;;;;;;12.67;8.63;;;5.60;1.00;;;;;;5093512;28;20202;-75
2022/01/20 03:29:09;;;;;;;16.77;7.93;;;5.50;1.00;;;;;;5093616;28;20665;-75
2022/01/20 03:31:37;;;;;;;13.80;8.13;;;5.60;1.00;;;;;;5093769;28;20212;-75
2022/01/20 03:34:04;;;;;;;9.07;7.03;;;5.50;1.00;;;;;;5093855;28;20255;-75
2022/01/20 03:36:31;;;;;;;11.50;7.33;;;5.40;1.00;;;;;;5093395;28;20292;-75
2022/01/20 03:38:58;;;;;;;8.87;6.87;;;5.40;1.00;;;;;;5093745;28;20201;-75
2022/01/20 03:41:25;;;;;;;10.33;7.87;;;5.40;1.00;;;;;;5093265;28;20286;-74
2022/01/20 03:43:52;;;;;;;12.80;7.17;;;5.40;1.00;;;;;;5093427;28;20680;-75
2022/01/20 03:46:22;;;;;;;11.50;7.27;;;5.40;1.00;;;;;;5094063;28;20201;-73
2022/01/20 03:48:55;;;;;;;9.83;6.47;;;5.30;1.00;;;;;;5075574;28;20238;-72
2022/01/20 03:51:24;;;;;;;11.00;7.17;;;5.30;1.00;;;;;;5073612;28;20217;-73
2022/01/20 03:53:53;;;;;;;9.87;7.17;;;5.30;1.00;;;;;;5073617;28;20252;-73
2022/01/20 03:56:22;;;;;;;11.30;6.30;;;5.40;1.00;;;;;;5073432;28;20248;-74
2022/01/20 03:58:50;;;;;;;9.73;6.63;;;5.30;1.00;;;;;;5073380;28;20210;-73
2022/01/20 04:01:18;;;;;;;12.83;7.83;;;5.40;1.00;;;;;;5073320;28;20230;-73
2022/01/20 04:03:47;;;;;;;10.77;7.13;;;5.40;1.00;;;;;;5072671;28;20202;-73
2022/01/20 04:06:15;;;;;;;12.40;6.63;;;5.40;1.00;;;;;;5072976;28;20210;-74
2022/01/20 04:08:44;;;;;;;15.00;7.53;;;5.50;1.00;;;;;;5072639;28;20202;-77
2022/01/20 04:11:13;;;;;;;10.27;7.50;;;5.50;1.00;;;;;;5072906;28;20263;-75
2022/01/20 04:13:40;;;;;;;12.33;7.53;;;5.50;1.00;;;;;;5072533;28;20256;-75
2022/01/20 04:16:13;;;;;;;11.70;6.83;;;5.50;1.00;;;;;;5072033;28;20202;-76
2022/01/20 04:18:41;;;;;;;12.53;6.70;;;5.40;1.00;;;;;;5072139;28;20596;-76
2022/01/20 04:21:10;;;;;;;11.27;7.77;;;5.50;1.00;;;;;;5072863;28;20708;-76
2022/01/20 04:23:37;;;;;;;10.70;7.37;;;5.50;1.00;;;;;;5072393;28;20256;-76
2022/01/20 04:26:04;;;;;;;9.73;6.70;;;5.50;1.00;;;;;;5072555;28;20685;-77
2022/01/20 04:28:31;;;;;;;8.60;6.17;;;5.50;1.00;;;;;;5072808;28;20206;-78
2022/01/20 04:31:00;;;;;;;10.73;7.03;;;5.50;1.00;;;;;;5084315;28;20206;-77
2022/01/20 04:33:27;;;;;;;9.90;6.93;;;5.50;1.00;;;;;;5085629;28;20209;-77
2022/01/20 04:35:54;;;;;;;11.60;6.73;;;5.60;1.00;;;;;;5085488;28;20209;-77
2022/01/20 04:38:23;;;;;;;11.13;6.53;;;5.60;1.00;;;;;;5093000;28;20254;-76
2022/01/20 04:40:50;;;;;;;10.40;6.30;;;5.60;1.00;;;;;;5092325;28;20219;-76
2022/01/20 04:43:17;;;;;;;10.80;7.30;;;5.40;1.00;;;;;;5092515;28;20217;-76
2022/01/20 04:45:50;;;;;;;11.43;6.37;;;5.40;1.00;;;;;;5091857;28;20201;-76
2022/01/20 04:48:25;;;;;;;10.17;6.53;;;5.40;1.00;;;;;;5089797;28;20252;-77
2022/01/20 04:59:06;;;;;;;7.53;6.57;;;5.40;1.00;;;;;;5091888;28;20262;-80
2022/01/20 05:01:33;;;;;;;10.53;7.13;;;5.30;1.00;;;;;;5092306;28;20237;-81
2022/01/20 05:04:03;;;;;;;10.93;6.77;;;5.40;1.00;;;;;;5092278;28;20210;-81
2022/01/20 05:06:30;;;;;;;9.90;7.53;;;5.50;1.00;;;;;;5090976;28;20250;-77
2022/01/20 05:08:58;;;;;;;12.53;8.20;;;5.60;1.00;;;;;;5091230;28;20672;-77
2022/01/20 05:11:25;;;;;;;11.37;8.20;;;5.50;1.00;;;;;;5091422;28;20210;-77
2022/01/20 05:13:52;;;;;;;9.37;7.23;;;5.50;1.00;;;;;;5091807;28;20254;-77
2022/01/20 05:16:23;;;;;;;8.57;6.83;;;5.40;1.00;;;;;;5092088;28;20321;-78
2022/01/20 05:18:50;;;;;;;12.10;7.90;;;5.30;1.00;;;;;;5091608;28;20209;-78
2022/01/20 05:21:17;;;;;;;10.93;7.97;;;5.40;1.00;;;;;;5091781;28;20655;-77
2022/01/20 05:23:45;;;;;;;10.87;9.37;;;5.30;1.00;;;;;;5086354;28;20218;-78
2022/01/20 05:26:13;;;;;;;10.03;7.20;;;5.30;1.00;;;;;;5091620;28;20282;-77
2022/01/20 05:28:40;;;;;;;8.27;6.93;;;5.30;1.00;;;;;;5090550;28;20213;-76
2022/01/20 05:31:07;;;;;;;10.20;7.63;;;5.30;1.00;;;;;;5091429;28;20269;-76
2022/01/20 05:33:34;;;;;;;7.37;6.27;;;5.10;1.00;;;;;;5090676;28;20634;-76
2022/01/20 05:36:02;;;;;;;8.60;6.70;;;5.10;1.00;;;;;;5091373;28;20205;-76
2022/01/20 05:38:29;;;;;;;9.53;6.40;;;5.20;1.00;;;;;;5090471;28;20254;-76
2022/01/20 05:40:56;;;;;;;8.73;6.67;;;5.20;1.00;;;;;;5090865;28;20213;-78
2022/01/20 05:43:24;;;;;;;8.30;5.83;;;5.40;1.00;;;;;;5091300;28;20209;-76
2022/01/20 05:45:51;;;;;;;9.20;6.70;;;5.30;1.00;;;;;;5091602;28;20254;-77
2022/01/20 05:48:31;;;;;;;9.23;5.90;;;5.20;1.00;;;;;;5091400;28;20212;-77
2022/01/20 05:50:58;;;;;;;7.70;6.17;;;5.30;1.00;;;;;;5083254;28;20237;-77
2022/01/20 05:53:26;;;;;;;10.93;6.37;;;5.40;1.00;;;;;;5084352;28;20202;-76
2022/01/20 05:55:54;;;;;;;8.73;5.67;;;5.30;1.00;;;;;;5090880;28;20711;-78
2022/01/20 05:58:21;;;;;;;11.87;7.37;;;5.30;1.00;;;;;;5090925;28;20209;-77
2022/01/20 06:00:50;;;;;;;8.73;6.30;;;5.20;1.00;;;;;;5090892;28;20205;-76
2022/01/20 06:06:02;;;;;;;9.73;6.77;;;5.40;1.00;;;;;;5090898;28;20208;-77
2022/01/20 06:08:29;;;;;;;11.57;6.43;;;5.40;1.00;;;;;;5090333;28;20205;-79
2022/01/20 06:10:56;;;;;;;13.63;7.13;;;5.10;1.00;;;;;;5090761;28;20672;-79
2022/01/20 06:13:23;;;;;;;10.67;7.30;;;5.10;1.00;;;;;;5091040;28;20261;-78
2022/01/20 06:15:52;;;;;;;10.03;6.83;;;5.10;1.00;;;;;;5091314;28;20684;-75
2022/01/20 06:18:19;;;;;;;12.03;8.77;;;5.20;1.00;;;;;;5090682;28;20322;-75
2022/01/20 06:20:47;;;;;;;20.77;18.30;;;5.20;1.00;;;;;;5090362;28;20213;-75
2022/01/20 06:23:14;;;;;;;13.87;10.70;;;5.30;1.00;;;;;;5090028;28;20248;-75
2022/01/20 06:25:41;;;;;;;14.07;11.47;;;5.20;1.00;;;;;;5076671;28;20205;-75
2022/01/20 06:28:09;;;;;;;12.00;8.97;;;5.20;1.00;;;;;;5090669;28;20216;-75
2022/01/20 06:30:37;;;;;;;14.43;12.07;;;5.20;1.00;;;;;;5089790;28;20201;-75
2022/01/20 06:33:05;;;;;;;38.03;34.30;;;5.20;1.00;;;;;;5090793;28;20205;-75
2022/01/20 06:35:33;;;;;;;18.73;16.20;;;5.30;1.00;;;;;;5089966;28;20212;-75
2022/01/20 06:38:00;;;;;;;22.97;20.43;;;5.20;1.00;;;;;;5090073;28;20201;-74
2022/01/20 06:40:28;;;;;;;12.60;8.33;;;5.10;1.00;;;;;;5091901;28;20198;-76
2022/01/20 06:42:55;;;;;;;15.37;12.27;;;5.10;1.00;;;;;;5094971;28;20229;-74
2022/01/20 06:45:23;;;;;;;12.00;8.10;;;5.10;1.00;;;;;;5094664;28;20205;-77
2022/01/20 06:47:50;;;;;;;15.13;12.87;;;5.10;1.00;;;;;;5094726;28;20647;-78
2022/01/20 06:50:19;;;;;;;19.07;16.10;;;5.10;1.00;;;;;;5094337;28;20217;-78
2022/01/20 06:52:46;;;;;;;17.93;14.43;;;5.10;1.00;;;;;;5093271;28;20259;-77
2022/01/20 06:55:15;;;;;;;22.07;16.27;;;5.10;15.30;;;;;;5094647;28;20287;-78
2022/01/20 06:57:42;;;;;;;36.40;32.63;;;5.10;57.30;;;;;;5094325;28;20270;-78
2022/01/20 07:00:11;;;;;;;54.93;49.03;;;5.10;91.50;;;;;;5094526;28;20259;-78
2022/01/20 07:02:38;;;;;;;28.97;26.03;;;5.10;99.90;;;;;;5093905;28;20232;-77
2022/01/20 07:05:06;;;;;;;14.80;11.27;;;5.20;99.90;;;;;;5094071;28;20202;-79
2022/01/20 07:07:35;;;;;;;23.93;20.47;;;5.50;99.90;;;;;;5094291;28;20254;-80
2022/01/20 07:10:02;;;;;;;16.03;11.97;;;5.50;1.00;;;;;;5094996;28;20201;-80
2022/01/20 07:12:29;;;;;;;14.40;10.47;;;5.30;6.70;;;;;;5094096;28;20209;-77
2022/01/20 07:14:56;;;;;;;14.17;10.50;;;5.20;99.90;;;;;;5094595;28;20201;-77
2022/01/20 07:17:23;;;;;;;14.20;9.97;;;5.20;99.90;;;;;;5094167;28;20201;-78
2022/01/20 07:19:50;;;;;;;14.77;10.00;;;5.10;99.90;;;;;;5094310;28;20247;-78
2022/01/20 07:22:17;;;;;;;11.63;9.60;;;5.20;99.90;;;;;;5094073;28;20739;-78
2022/01/20 07:24:47;;;;;;;14.30;9.27;;;5.20;99.90;;;;;;5093430;28;20644;-78
2022/01/20 07:27:14;;;;;;;9.77;8.40;;;5.10;99.90;;;;;;5094329;28;20214;-78
2022/01/20 07:29:43;;;;;;;13.90;10.10;;;5.10;99.90;;;;;;5084105;28;20268;-77
2022/01/20 07:32:11;;;;;;;16.00;10.53;;;5.10;99.90;;;;;;5080469;28;20310;-77
2022/01/20 07:34:38;;;;;;;23.53;12.57;;;4.80;99.90;;;;;;5089469;28;20202;-78
2022/01/20 07:37:06;;;;;;;22.03;12.57;;;4.70;1.00;;;;;;5091545;28;20275;-78
2022/01/20 07:39:34;;;;;;;16.30;11.60;;;4.70;1.00;;;;;;5093449;28;20255;-77
2022/01/20 07:42:02;;;;;;;16.43;11.50;;;4.80;1.00;;;;;;5093038;28;20700;-75
2022/01/20 07:44:29;;;;;;;17.77;10.70;;;4.90;1.00;;;;;;5093140;28;20209;-75
2022/01/20 07:46:57;;;;;;;15.20;10.77;;;4.90;1.00;;;;;;5092081;28;20259;-76
2022/01/20 07:49:24;;;;;;;12.97;8.40;;;4.80;1.00;;;;;;5092814;28;20235;-76
2022/01/20 07:51:51;;;;;;;13.27;8.20;;;4.90;1.00;;;;;;5093155;28;20201;-77
2022/01/20 07:54:18;;;;;;;15.97;9.50;;;4.90;1.00;;;;;;5093374;28;20210;-77
2022/01/20 07:56:45;;;;;;;15.83;9.40;;;4.90;1.00;;;;;;5092970;28;20213;-76
2022/01/20 07:59:14;;;;;;;14.60;10.40;;;4.90;1.00;;;;;;5093200;28;20726;-77
2022/01/20 08:01:41;;;;;;;13.60;9.97;;;5.00;1.00;;;;;;5092652;28;20267;-78
2022/01/20 08:04:08;;;;;;;14.50;9.03;;;5.00;1.00;;;;;;5093015;28;20258;-77
2022/01/20 08:06:35;;;;;;;13.03;8.50;;;5.10;1.00;;;;;;5092419;28;20205;-79
2022/01/20 08:09:02;;;;;;;12.13;9.30;;;5.10;1.00;;;;;;5086318;28;20225;-78
2022/01/20 08:11:29;;;;;;;11.73;10.00;;;5.10;1.00;;;;;;5080766;28;20227;-78
2022/01/20 08:13:56;;;;;;;13.03;9.03;;;5.10;1.00;;;;;;5088707;28;20723;-76
2022/01/20 08:16:25;;;;;;;10.63;8.97;;;5.20;1.00;;;;;;5082370;28;20210;-75
2022/01/20 08:18:53;;;;;;;12.47;8.73;;;5.30;1.00;;;;;;5078522;28;20206;-76
2022/01/20 08:21:20;;;;;;;12.17;10.03;;;5.40;1.00;;;;;;5089366;28;20590;-76
2022/01/20 08:23:47;;;;;;;15.87;10.63;;;5.50;1.00;;;;;;5083696;28;20294;-75
2022/01/20 08:26:14;;;;;;;13.50;9.93;;;5.60;1.00;;;;;;5077422;28;20693;-74
2022/01/20 08:28:42;;;;;;;14.23;9.47;;;5.50;99.90;;;;;;5091813;28;20202;-77
2022/01/20 08:31:09;;;;;;;12.83;9.30;;;5.60;1.00;;;;;;5086418;28;20292;-79
2022/01/20 08:33:38;;;;;;;11.77;8.67;;;5.60;1.00;;;;;;5091969;28;20674;-79
2022/01/20 08:36:05;;;;;;;14.90;10.47;;;5.60;1.00;;;;;;5092674;28;20206;-79
2022/01/20 08:38:33;;;;;;;12.20;9.43;;;5.60;99.90;;;;;;5091095;28;20210;-78
2022/01/20 08:41:00;;;;;;;28.67;24.90;;;5.70;99.90;;;;;;5091968;28;20205;-81
2022/01/20 08:43:27;;;;;;;15.07;12.63;;;6.00;99.90;;;;;;5091668;28;20789;-80
2022/01/20 08:45:54;;;;;;;12.10;8.13;;;6.30;26.40;;;;;;5092641;28;20251;-80
2022/01/20 08:48:21;;;;;;;7.37;5.63;;;6.40;1.00;;;;;;5084012;28;20230;-79
2022/01/20 08:50:49;;;;;;;17.47;15.67;;;6.20;1.00;;;;;;5085297;28;21637;-79
2022/01/20 08:53:16;;;;;;;20.33;18.20;;;6.20;1.00;;;;;;5092445;28;20262;-82
2022/01/20 08:55:43;;;;;;;10.27;6.30;;;6.20;1.00;;;;;;5091153;28;20205;-80
2022/01/20 08:58:10;;;;;;;28.17;23.87;;;6.20;1.00;;;;;;5083073;28;20255;-80
2022/01/20 09:00:37;;;;;;;13.90;12.17;;;6.40;1.00;;;;;;5087378;28;20209;-83
2022/01/20 09:03:06;;;;;;;10.03;7.40;;;6.40;1.00;;;;;;5085801;28;20240;-81
2022/01/20 09:05:33;;;;;;;10.30;6.40;;;6.40;1.00;;;;;;5089992;28;20225;-80
2022/01/20 09:08:02;;;;;;;9.63;5.93;;;6.40;1.00;;;;;;5082178;28;20217;-82
2022/01/20 09:10:36;;;;;;;8.30;6.03;;;6.30;1.00;;;;;;5090708;28;20236;-79
2022/01/20 09:15:49;;;;;;;9.20;6.40;;;6.40;1.00;;;;;;5089607;28;20204;-79
2022/01/20 09:18:18;;;;;;;8.13;6.13;;;6.60;1.00;;;;;;5090293;28;20594;-79
2022/01/20 09:20:45;;;;;;;11.73;6.53;;;6.70;1.00;;;;;;5079128;28;20206;-79
2022/01/20 09:23:14;;;;;;;10.77;7.07;;;6.80;1.00;;;;;;5093455;28;20657;-79
2022/01/20 09:25:42;;;;;;;12.13;7.13;;;6.40;1.00;;;;;;5076130;28;20240;-81
2022/01/20 09:28:10;;;;;;;7.93;6.80;;;6.60;1.00;;;;;;5089738;28;20212;-79
2022/01/20 09:30:40;;;;;;;10.17;7.00;;;6.40;1.00;;;;;;5078127;28;20210;-81
2022/01/20 09:33:14;;;;;;;10.93;7.70;;;6.50;1.00;;;;;;5086329;28;20205;-77
2022/01/20 09:35:43;;;;;;;15.03;8.03;;;6.10;1.00;;;;;;5077557;28;20674;-80
2022/01/20 09:38:11;;;;;;;11.47;8.37;;;5.80;1.00;;;;;;5080424;28;20210;-82
2022/01/20 09:40:42;;;;;;;13.50;8.27;;;5.90;99.90;;;;;;5087955;28;20210;-79
2022/01/20 09:43:12;;;;;;;10.03;8.50;;;5.90;46.30;;;;;;5087380;28;20246;-80
2022/01/20 09:45:40;;;;;;;12.83;8.07;;;6.10;99.90;;;;;;5090565;28;20205;-78
2022/01/20 09:48:09;;;;;;;17.00;8.33;;;6.30;1.00;;;;;;5091290;28;20262;-79
2022/01/20 09:50:36;;;;;;;12.10;6.90;;;6.40;1.00;;;;;;5080393;28;20231;-79
2022/01/20 09:53:03;;;;;;;9.63;7.20;;;6.10;1.00;;;;;;5091318;28;20262;-78
2022/01/20 09:55:32;;;;;;;10.47;8.13;;;6.30;1.00;;;;;;5072881;28;20206;-79
2022/01/20 09:58:01;;;;;;;11.97;8.37;;;6.50;1.00;;;;;;5081456;28;20205;-76
2022/01/20 10:00:28;;;;;;;10.93;6.00;;;6.30;1.00;;;;;;5083824;28;20262;-78
2022/01/20 10:02:58;;;;;;;10.57;7.70;;;6.40;1.00;;;;;;5084726;28;20228;-80
2022/01/20 10:05:30;;;;;;;7.67;5.97;;;6.60;1.00;;;;;;5076206;28;20206;-77
2022/01/20 10:08:02;;;;;;;10.33;7.40;;;6.90;1.00;;;;;;5085638;28;20213;-78
2022/01/20 10:10:45;;;;;;;9.37;6.53;;;6.70;1.00;;;;;;5084841;28;20258;-77
2022/01/20 10:13:15;;;;;;;7.93;6.43;;;6.80;1.00;;;;;;5089232;28;20253;-78
2022/01/20 10:15:43;;;;;;;8.80;7.57;;;6.60;1.00;;;;;;5090463;28;20201;-78
2022/01/20 10:18:12;;;;;;;10.10;7.80;;;6.50;1.00;;;;;;5090554;28;20212;-78
2022/01/20 10:20:52;;;;;;;10.53;7.33;;;6.30;1.00;;;;;;5090221;28;20205;-79
2022/01/20 10:23:35;;;;;;;10.47;7.60;;;6.40;1.00;;;;;;5090228;28;20228;-78
2022/01/20 10:26:09;;;;;;;15.23;8.60;;;6.40;1.00;;;;;;5090822;28;20661;-78
2022/01/20 10:28:52;;;;;;;12.33;7.77;;;6.50;1.00;;;;;;5090129;28;20205;-78
2022/01/20 10:31:32;;;;;;;9.30;8.03;;;6.30;1.00;;;;;;5090589;28;20205;-78
2022/01/20 10:33:59;;;;;;;13.03;8.00;;;6.30;83.20;;;;;;5090762;28;20205;-78
2022/01/20 10:36:26;;;;;;;12.87;7.70;;;6.40;91.80;;;;;;5089838;28;20206;-78
2022/01/20 10:38:55;;;;;;;10.73;9.53;;;6.40;99.90;;;;;;5090888;28;20201;-77
2022/01/20 10:41:33;;;;;;;15.00;9.33;;;6.70;1.00;;;;;;5089678;28;20342;-78
2022/01/20 10:44:11;;;;;;;12.13;8.50;;;6.70;1.00;;;;;;5090059;28;20291;-78
2022/01/20 10:46:47;;;;;;;11.90;9.27;;;6.70;1.00;;;;;;5089845;28;20262;-78
2022/01/20 10:49:14;;;;;;;9.90;8.13;;;6.90;1.00;;;;;;5081058;28;20202;-78
2022/01/20 10:51:43;;;;;;;9.30;7.17;;;6.80;1.00;;;;;;5075933;28;20668;-77
2022/01/20 10:54:13;;;;;;;12.30;7.53;;;6.70;1.00;;;;;;5088578;28;20205;-77
2022/01/20 10:56:51;;;;;;;13.03;7.27;;;6.80;1.00;;;;;;5077980;28;20256;-78
2022/01/20 10:59:21;;;;;;;10.67;7.27;;;6.90;1.00;;;;;;5075072;28;20263;-78
2022/01/20 11:01:59;;;;;;;10.30;6.90;;;7.00;1.00;;;;;;5077035;28;20209;-77
2022/01/20 11:04:27;;;;;;;10.20;7.57;;;6.90;1.00;;;;;;5077103;28;20278;-78
2022/01/20 11:06:57;;;;;;;9.10;7.30;;;6.70;1.00;;;;;;5082367;28;20791;-78
2022/01/20 11:09:25;;;;;;;12.30;8.03;;;6.90;1.00;;;;;;5080278;28;20216;-77
2022/01/20 11:11:52;;;;;;;8.23;6.07;;;6.80;1.00;;;;;;5079479;28;20215;-78
2022/01/20 11:14:21;;;;;;;9.33;6.70;;;7.00;1.00;;;;;;5078859;28;20202;-79
2022/01/20 11:16:49;;;;;;;10.27;5.63;;;7.20;1.00;;;;;;5089141;28;20247;-78
2022/01/20 11:19:17;;;;;;;6.70;5.00;;;6.90;1.00;;;;;;5090062;28;20255;-80
2022/01/20 11:21:45;;;;;;;7.50;5.50;;;6.60;1.00;;;;;;5089670;28;20206;-78
2022/01/20 11:24:24;;;;;;;8.10;6.13;;;6.60;1.00;;;;;;5089805;28;20264;-78
2022/01/20 11:26:53;;;;;;;9.77;6.27;;;6.60;1.00;;;;;;5078701;28;20204;-78
2022/01/20 11:29:23;;;;;;;8.90;7.20;;;6.70;1.00;;;;;;5092664;28;20237;-79
2022/01/20 11:31:50;;;;;;;13.70;9.77;;;6.70;1.00;;;;;;5085248;28;20635;-79
2022/01/20 11:34:20;;;;;;;13.57;11.53;;;6.60;1.00;;;;;;5082142;28;20297;-78
2022/01/20 11:36:47;;;;;;;13.17;9.70;;;6.60;1.00;;;;;;5078244;28;20220;-77
2022/01/20 11:39:18;;;;;;;14.90;10.83;;;6.60;1.00;;;;;;5078787;28;20217;-77
2022/01/20 11:41:49;;;;;;;12.27;8.50;;;6.60;1.00;;;;;;5076359;28;20206;-79
2022/01/20 11:44:18;;;;;;;8.97;7.83;;;6.50;1.00;;;;;;5086139;28;20225;-78
2022/01/20 11:46:52;;;;;;;10.07;8.53;;;6.40;1.00;;;;;;5088717;28;20205;-78
2022/01/20 11:49:20;;;;;;;9.50;7.87;;;6.60;1.00;;;;;;5090264;28;20199;-77
2022/01/20 11:51:50;;;;;;;12.83;8.00;;;6.60;1.00;;;;;;5084816;28;20206;-79
2022/01/20 11:54:27;;;;;;;9.33;7.40;;;6.60;1.00;;;;;;5092773;28;20205;-77
2022/01/20 11:57:09;;;;;;;10.53;7.63;;;6.90;1.00;;;;;;5080268;28;20206;-79
2022/01/20 11:59:41;;;;;;;8.17;5.53;;;6.70;1.00;;;;;;5079776;28;20197;-80
2022/01/20 12:02:11;;;;;;;8.03;5.90;;;6.60;1.00;;;;;;5092504;28;20201;-79
2022/01/20 12:04:40;;;;;;;10.93;6.40;;;6.50;1.00;;;;;;5091453;28;20237;-78
2022/01/20 12:07:09;;;;;;;9.97;6.33;;;6.70;1.00;;;;;;5088113;28;20210;-79
2022/01/20 12:09:38;;;;;;;9.47;6.73;;;6.60;1.00;;;;;;5072831;28;20210;-79
2022/01/20 12:12:06;;;;;;;8.10;5.93;;;6.60;1.00;;;;;;5073135;28;20198;-79
2022/01/20 12:14:36;;;;;;;7.40;6.23;;;6.50;1.00;;;;;;5072970;28;20228;-78
2022/01/20 12:17:11;;;;;;;9.50;6.83;;;6.70;1.00;;;;;;5073194;28;20198;-77
2022/01/20 12:19:38;;;;;;;8.07;6.73;;;6.70;1.00;;;;;;5077597;28;20224;-77
2022/01/20 12:22:07;;;;;;;9.17;6.93;;;6.80;1.00;;;;;;5092311;28;20202;-79
2022/01/20 12:24:37;;;;;;;11.03;7.47;;;6.60;1.00;;;;;;5092395;28;20282;-79
2022/01/20 12:27:15;;;;;;;9.53;7.33;;;6.60;1.00;;;;;;5093138;28;20262;-79
2022/01/20 12:29:42;;;;;;;8.33;6.80;;;6.60;1.00;;;;;;5092553;28;20306;-78
2022/01/20 12:32:14;;;;;;;7.67;5.93;;;6.70;1.00;;;;;;5092968;28;20205;-78
2022/01/20 12:34:42;;;;;;;9.60;6.70;;;6.70;1.00;;;;;;5086727;28;20259;-79
2022/01/20 12:37:09;;;;;;;11.87;8.17;;;6.90;1.00;;;;;;5092328;28;20251;-79
2022/01/20 12:39:39;;;;;;;11.13;7.43;;;7.10;1.00;;;;;;5073240;28;20214;-80
2022/01/20 12:42:08;;;;;;;9.00;7.13;;;7.40;1.00;;;;;;5082465;28;20665;-78
2022/01/20 12:44:47;;;;;;;11.63;8.10;;;7.20;1.00;;;;;;5091633;28;20279;-78
2022/01/20 12:47:17;;;;;;;12.50;8.70;;;7.40;1.00;;;;;;5071886;28;20644;-79
2022/01/20 12:49:44;;;;;;;10.57;8.63;;;7.30;1.00;;;;;;5085773;28;20213;-81
2022/01/20 12:52:12;;;;;;;10.90;7.50;;;7.50;1.00;;;;;;5086640;28;20206;-80
2022/01/20 12:54:39;;;;;;;12.13;7.47;;;7.60;1.00;;;;;;5088569;28;20557;-83
2022/01/20 12:57:09;;;;;;;12.00;9.17;;;7.90;1.00;;;;;;5084884;28;20210;-82
2022/01/20 12:59:37;;;;;;;13.83;8.57;;;8.10;1.00;;;;;;5091858;28;20285;-81
2022/01/20 13:02:07;;;;;;;9.50;7.87;;;8.10;1.00;;;;;;5091441;28;20258;-83
2022/01/20 13:04:37;;;;;;;9.40;7.30;;;8.20;1.00;;;;;;5091165;28;20221;-82
2022/01/20 13:07:07;;;;;;;11.83;6.77;;;8.10;1.00;;;;;;5092140;28;20208;-82
2022/01/20 13:09:39;;;;;;;10.23;7.53;;;8.10;1.00;;;;;;5091614;28;20205;-81
2022/01/20 13:12:07;;;;;;;7.23;6.07;;;7.80;1.00;;;;;;5084137;28;20270;-74
2022/01/20 13:14:37;;;;;;;8.37;7.43;;;7.70;1.00;;;;;;5077476;28;20210;-84
2022/01/20 13:17:08;;;;;;;8.47;6.50;;;7.40;1.00;;;;;;5085924;28;20217;-83
2022/01/20 13:19:39;;;;;;;8.97;6.20;;;7.60;1.00;;;;;;5080858;28;20633;-82
2022/01/20 13:22:08;;;;;;;9.60;7.70;;;7.90;1.00;;;;;;5082543;28;20293;-83
2022/01/20 13:24:36;;;;;;;8.70;6.97;;;7.80;1.00;;;;;;5086975;28;20317;-87
2022/01/20 13:27:07;;;;;;;10.17;7.67;;;7.80;1.00;;;;;;5082863;28;20210;-82
2022/01/20 13:29:44;;;;;;;10.60;7.97;;;7.90;1.00;;;;;;5083881;28;20202;-83
2022/01/20 13:32:11;;;;;;;7.87;6.60;;;8.10;1.00;;;;;;5083173;28;20205;-84
2022/01/20 13:34:40;;;;;;;10.13;7.90;;;8.30;1.00;;;;;;5091723;28;20243;-85
2022/01/20 13:37:14;;;;;;;9.50;7.23;;;8.30;1.00;;;;;;5080635;28;20214;-82
2022/01/20 13:39:42;;;;;;;11.57;6.97;;;8.30;1.00;;;;;;5083005;28;20213;-81
2022/01/20 13:42:25;;;;;;;10.03;7.33;;;8.20;1.00;;;;;;5080556;28;20267;-80
2022/01/20 13:45:04;;;;;;;8.90;7.07;;;8.10;1.00;;;;;;5078308;28;20240;-83
2022/01/20 13:47:31;;;;;;;10.27;8.53;;;8.00;1.00;;;;;;5091207;28;20209;-82
2022/01/20 13:49:59;;;;;;;12.80;8.97;;;8.10;1.00;;;;;;5091427;28;20270;-83
2022/01/20 13:52:28;;;;;;;11.03;7.50;;;7.90;1.00;;;;;;5090900;28;20734;-82
2022/01/20 13:54:56;;;;;;;13.63;7.87;;;7.90;1.00;;;;;;5091885;28;20205;-80